Time;durP1;ratioP1;P1;durP2;ratioP2;P2;SDS_P1;SDS_P2;PMS_P1;PMS_P2;Temp;Humidity;BMP_temperature;BMP_pressure;BME280_temperature;BME280_humidity;BME280_pressure;Samples;Min_cycle;Max_cycle;Signal;HPM_P1;HPM_P2
2022/12/25 00:01:18;;;;;;;10.60;5.23;;;;;;;5.90;95.89;100661.22;5041136;22;20238;-82
2022/12/25 00:03:44;;;;;;;9.87;6.10;;;;;;;5.92;95.87;100669.00;5021740;28;20234;-82
2022/12/25 00:06:11;;;;;;;11.13;6.20;;;;;;;5.89;96.47;100667.28;5012691;28;20256;-82
2022/12/25 00:08:40;;;;;;;11.10;6.23;;;;;;;5.89;96.37;100662.09;5002289;28;20853;-83
2022/12/25 00:11:09;;;;;;;8.73;6.20;;;;;;;5.91;96.07;100677.66;4995738;28;20226;-84
2022/12/25 00:13:35;;;;;;;12.23;7.03;;;;;;;5.92;96.11;100675.03;4995993;28;20261;-84
2022/12/25 00:16:06;;;;;;;9.73;7.00;;;;;;;5.93;96.17;100673.34;4996135;28;20231;-83
2022/12/25 00:18:32;;;;;;;9.37;5.87;;;;;;;5.91;96.13;100683.69;4996042;28;20261;-82
2022/12/25 00:21:00;;;;;;;7.97;5.97;;;;;;;5.85;95.72;100686.25;4995563;28;20234;-83
2022/12/25 00:23:27;;;;;;;8.70;5.83;;;;;;;5.84;95.76;100691.41;4996019;28;20262;-84
2022/12/25 00:25:55;;;;;;;13.30;5.80;;;;;;;5.88;94.73;100698.34;4995467;28;20594;-80
2022/12/25 00:28:22;;;;;;;11.73;7.53;;;;;;;5.82;95.55;100704.34;4996152;28;20234;-82
2022/12/25 00:30:49;;;;;;;11.90;6.20;;;;;;;5.78;95.65;100702.63;4995824;28;20281;-81
2022/12/25 00:33:16;;;;;;;7.83;5.97;;;;;;;5.74;95.65;100700.88;4995607;28;20204;-84
2022/12/25 00:35:42;;;;;;;9.03;5.70;;;;;;;5.68;95.41;100691.34;4995188;28;20206;-81
2022/12/25 00:38:09;;;;;;;7.47;5.57;;;;;;;5.66;94.92;100705.16;4995654;28;20602;-82
2022/12/25 00:40:41;;;;;;;8.67;5.50;;;;;;;5.59;94.75;100727.56;4995304;28;20209;-84
2022/12/25 00:43:09;;;;;;;9.20;6.03;;;;;;;5.59;94.50;100735.34;4995766;28;20280;-82
2022/12/25 00:45:35;;;;;;;8.87;6.10;;;;;;;5.57;94.87;100726.69;4995689;28;20214;-83
2022/12/25 00:48:02;;;;;;;10.40;7.00;;;;;;;5.56;94.65;100723.22;4995536;28;20207;-81
2022/12/25 00:50:28;;;;;;;14.43;6.50;;;;;;;5.56;95.32;100702.50;4995427;28;20617;-82
2022/12/25 00:52:54;;;;;;;10.77;6.33;;;;;;;5.52;95.79;100705.06;4996243;28;20214;-84
2022/12/25 00:55:21;;;;;;;8.60;4.73;;;;;;;5.52;96.11;100703.34;4995430;28;20624;-83
2022/12/25 00:57:47;;;;;;;17.17;6.10;;;;;;;5.51;96.76;100690.38;4995762;28;20226;-81
2022/12/25 01:00:16;;;;;;;6.40;5.77;;;;;;;5.47;97.06;100678.28;4995808;28;20758;-85
2022/12/25 01:02:42;;;;;;;11.73;5.53;;;;;;;5.48;97.38;100678.28;4995567;28;20288;-81
2022/12/25 01:05:10;;;;;;;9.03;5.57;;;;;;;5.49;96.70;100671.38;4996387;28;20209;-83
2022/12/25 01:07:36;;;;;;;9.10;5.37;;;;;;;5.46;96.79;100664.47;4995734;28;20233;-84
2022/12/25 01:12:46;;;;;;;10.97;4.87;;;;;;;5.37;98.00;100644.59;4995394;28;20229;-83
2022/12/25 01:15:14;;;;;;;14.27;5.40;;;;;;;5.36;99.45;100619.53;4995092;28;20209;-83
2022/12/25 01:17:41;;;;;;;12.10;4.37;;;;;;;5.39;100.00;100597.97;4995782;28;20256;-84
2022/12/25 01:20:08;;;;;;;7.57;3.90;;;;;;;5.47;100.00;100583.38;5004848;28;20587;-83
2022/12/25 01:22:34;;;;;;;10.63;4.27;;;;;;;5.46;100.00;100573.88;5016052;28;20233;-83
2022/12/25 01:25:01;;;;;;;7.67;4.13;;;;;;;5.46;100.00;100558.31;5015221;28;20206;-83
2022/12/25 01:27:27;;;;;;;8.97;3.93;;;;;;;5.50;100.00;100549.72;5015482;28;20206;-84
2022/12/25 01:29:54;;;;;;;15.07;5.23;;;;;;;5.53;100.00;100538.50;5015187;28;20683;-82
2022/12/25 01:32:21;;;;;;;10.63;4.60;;;;;;;5.55;100.00;100519.53;5015633;28;20252;-83
2022/12/25 01:34:48;;;;;;;16.63;5.50;;;;;;;5.48;100.00;100504.84;5015980;28;20206;-83
2022/12/25 01:37:14;;;;;;;12.33;4.63;;;;;;;5.48;100.00;100497.06;5015746;28;20232;-83
2022/12/25 01:39:40;;;;;;;10.33;3.97;;;;;;;5.48;100.00;100491.88;5015341;28;20695;-83
2022/12/25 01:42:14;;;;;;;11.93;5.23;;;;;;;5.48;100.00;100496.22;5015976;28;20281;-84
2022/12/25 01:45:20;;;;;;;12.87;5.40;;;;;;;5.53;100.00;100489.31;5015663;28;20740;-83
2022/12/25 01:47:48;;;;;;;12.83;5.57;;;;;;;5.50;100.00;100477.22;5016667;28;20685;-83
2022/12/25 01:50:14;;;;;;;14.33;6.67;;;;;;;5.60;100.00;100469.47;5017034;28;20209;-82
2022/12/25 01:52:41;;;;;;;15.50;5.27;;;;;;;5.69;100.00;100460.00;5021767;28;20233;-84
2022/12/25 01:55:10;;;;;;;13.77;5.80;;;;;;;5.76;100.00;100441.00;5013605;28;20209;-81
2022/12/25 01:57:38;;;;;;;11.77;4.57;;;;;;;5.75;100.00;100441.03;5013986;28;20824;-81
2022/12/25 02:00:07;;;;;;;13.63;5.17;;;;;;;5.76;100.00;100453.94;5014647;28;20260;-81
2022/12/25 02:02:34;;;;;;;8.77;3.93;;;;;;;5.74;100.00;100450.50;5017550;28;20303;-81
2022/12/25 02:05:07;;;;;;;15.63;5.03;;;;;;;5.75;100.00;100469.50;5017579;28;20684;-84
2022/12/25 02:07:37;;;;;;;14.43;5.63;;;;;;;5.71;100.00;100485.91;5017721;28;20205;-83
2022/12/25 02:10:04;;;;;;;6.47;3.83;;;;;;;5.69;100.00;100495.38;5017406;28;20232;-83
2022/12/25 02:12:32;;;;;;;8.90;5.03;;;;;;;5.76;100.00;100504.91;5018188;28;20280;-83
2022/12/25 02:15:02;;;;;;;12.90;4.60;;;;;;;5.81;100.00;100516.16;5018270;28;20214;-83
2022/12/25 02:17:34;;;;;;;9.87;4.40;;;;;;;5.85;100.00;100501.47;5017800;28;20257;-82
2022/12/25 02:20:27;;;;;;;11.00;4.67;;;;;;;5.85;100.00;100497.16;5017277;28;20265;-83
2022/12/25 02:23:13;;;;;;;12.47;4.90;;;;;;;5.91;100.00;100498.88;5017370;28;20213;-83
2022/12/25 02:25:53;;;;;;;13.90;5.37;;;;;;;6.05;100.00;100479.06;5017299;28;20218;-83
2022/12/25 02:28:25;;;;;;;12.17;4.77;;;;;;;6.20;100.00;100467.81;5017454;28;20581;-82
2022/12/25 02:30:55;;;;;;;7.60;4.50;;;;;;;6.20;100.00;100466.97;5017521;28;20277;-82
2022/12/25 02:36:20;;;;;;;11.13;4.67;;;;;;;6.30;100.00;100464.38;5017438;28;20209;-84
2022/12/25 02:41:37;;;;;;;8.17;4.97;;;;;;;6.26;100.00;100475.59;5015472;28;20224;-81
2022/12/25 03:06:43;;;;;;;7.10;4.07;;;;;;;6.53;100.00;100486.81;5016801;28;20580;-82
2022/12/25 03:12:05;;;;;;;13.00;5.17;;;;;;;6.54;100.00;100504.97;5015087;28;20231;-81
2022/12/25 03:17:22;;;;;;;9.97;4.80;;;;;;;6.51;100.00;100517.91;4943057;28;20775;-83
2022/12/25 03:28:18;;;;;;;8.97;4.53;;;;;;;6.49;100.00;100534.34;4942697;28;20294;-81
2022/12/25 03:31:12;;;;;;;10.07;4.43;;;;;;;6.41;100.00;100536.09;5015886;28;20206;-83
2022/12/25 03:37:02;;;;;;;5.27;3.93;;;;;;;6.44;100.00;100533.47;5016194;28;20207;-82
2022/12/25 04:37:33;;;;;;;11.43;5.73;;;;;;;6.39;100.00;100421.16;5015513;28;20774;-84
2022/12/25 04:40:01;;;;;;;13.07;5.10;;;;;;;6.51;100.00;100388.25;5014586;28;20214;-83
2022/12/25 04:42:27;;;;;;;12.10;4.80;;;;;;;6.59;100.00;100397.75;5016082;28;20724;-83
2022/12/25 04:44:53;;;;;;;16.33;5.83;;;;;;;6.60;100.00;100394.28;5015255;28;20253;-83
2022/12/25 04:47:19;;;;;;;9.77;5.80;;;;;;;6.63;100.00;100391.69;5015795;28;20206;-83
2022/12/25 04:49:46;;;;;;;14.50;6.33;;;;;;;6.69;100.00;100391.66;5015786;28;20256;-83
2022/12/25 04:52:12;;;;;;;11.63;5.43;;;;;;;6.76;100.00;100375.22;5015316;28;20739;-82
2022/12/25 04:54:39;;;;;;;9.07;5.83;;;;;;;6.83;100.00;100376.03;5015445;28;20210;-82
2022/12/25 04:57:06;;;;;;;8.60;5.97;;;;;;;6.89;100.00;100373.41;5015612;28;20715;-83
2022/12/25 04:59:33;;;;;;;11.17;6.13;;;;;;;6.95;100.00;100373.38;5015367;28;20214;-83
2022/12/25 05:01:59;;;;;;;12.43;7.23;;;;;;;6.97;100.00;100369.91;5015169;28;20230;-83
2022/12/25 05:04:25;;;;;;;10.50;5.60;;;;;;;6.91;100.00;100384.66;5015320;28;20272;-83
2022/12/25 05:06:52;;;;;;;8.87;4.50;;;;;;;6.83;100.00;100371.69;5015707;28;20214;-83
2022/12/25 05:09:18;;;;;;;11.03;5.20;;;;;;;6.82;100.00;100367.41;5015243;28;20676;-83
2022/12/25 05:11:44;;;;;;;8.87;4.63;;;;;;;6.87;100.00;100362.19;5014553;28;20229;-83
2022/12/25 05:14:12;;;;;;;8.03;4.80;;;;;;;6.84;100.00;100368.25;5015472;28;20680;-83
2022/12/25 05:16:38;;;;;;;10.83;5.43;;;;;;;6.88;100.00;100363.91;5015813;28;20208;-82
2022/12/25 05:19:05;;;;;;;20.27;6.07;;;;;;;7.01;100.00;100375.94;5015028;28;20225;-83
2022/12/25 05:21:31;;;;;;;22.50;6.80;;;;;;;7.08;100.00;100379.38;5014683;28;20235;-83
2022/12/25 05:23:57;;;;;;;10.53;6.07;;;;;;;7.15;100.00;100373.25;5015857;28;20199;-83
2022/12/25 05:26:25;;;;;;;9.33;4.50;;;;;;;7.14;100.00;100379.34;5015723;28;20214;-83
2022/12/25 05:28:52;;;;;;;13.20;5.60;;;;;;;7.13;100.00;100378.47;5016038;28;20206;-85
2022/12/25 05:31:20;;;;;;;11.27;5.33;;;;;;;7.18;100.00;100377.59;5015057;28;20223;-84
2022/12/25 05:33:49;;;;;;;15.37;5.67;;;;;;;7.22;100.00;100374.97;5014959;28;20213;-84
2022/12/25 05:36:15;;;;;;;11.43;4.47;;;;;;;7.25;100.00;100376.66;5018041;28;20633;-83
2022/12/25 05:38:41;;;;;;;13.70;5.17;;;;;;;7.24;100.00;100385.34;5020503;28;20233;-84
2022/12/25 05:41:08;;;;;;;12.77;4.70;;;;;;;7.31;100.00;100381.81;5028219;28;20288;-83
2022/12/25 05:43:35;;;;;;;10.13;5.00;;;;;;;7.33;100.00;100388.75;5030919;28;20214;-83
2022/12/25 05:46:05;;;;;;;13.83;4.80;;;;;;;7.34;100.00;100380.06;5032262;28;20261;-83
2022/12/25 05:48:33;;;;;;;16.13;4.83;;;;;;;7.35;100.00;100374.03;5024828;28;20280;-84
2022/12/25 05:51:04;;;;;;;12.70;5.37;;;;;;;7.39;100.00;100384.38;5019515;28;20276;-84
2022/12/25 05:53:30;;;;;;;8.67;4.50;;;;;;;7.36;100.00;100378.31;5019738;28;20296;-81
2022/12/25 05:56:00;;;;;;;11.80;4.77;;;;;;;7.37;100.00;100379.19;5021144;28;20210;-82
2022/12/25 05:58:27;;;;;;;11.30;4.60;;;;;;;7.36;100.00;100374.88;5019107;28;20230;-83
2022/12/25 06:03:21;;;;;;;12.67;4.20;;;;;;;7.36;100.00;100378.31;5038487;23;20241;-78
2022/12/25 06:05:48;;;;;;;14.60;5.13;;;;;;;7.44;100.00;100374.81;5018575;28;20206;-79
2022/12/25 06:08:15;;;;;;;8.87;5.07;;;;;;;7.48;100.00;100363.53;5019057;28;20202;-79
2022/12/25 06:10:41;;;;;;;5.23;4.07;;;;;;;7.44;100.00;100367.03;5018887;28;20261;-79
2022/12/25 06:13:07;;;;;;;9.37;4.07;;;;;;;7.39;100.00;100369.63;5018217;28;20231;-79
2022/12/25 06:15:34;;;;;;;8.93;3.93;;;;;;;7.49;100.00;100366.13;5018640;28;20206;-78
2022/12/25 06:18:01;;;;;;;8.67;4.20;;;;;;;7.49;100.00;100360.06;5018284;28;20654;-79
2022/12/25 06:20:27;;;;;;;7.37;4.00;;;;;;;7.53;100.00;100359.16;5018129;28;20203;-79
2022/12/25 06:22:55;;;;;;;8.30;4.50;;;;;;;7.55;100.00;100362.59;5018127;28;20226;-79
2022/12/25 06:25:21;;;;;;;10.63;4.20;;;;;;;7.63;100.00;100365.13;5018727;28;20637;-78
2022/12/25 06:27:48;;;;;;;7.00;3.90;;;;;;;7.65;100.00;100369.47;5018356;28;20203;-79
2022/12/25 06:30:14;;;;;;;11.43;4.57;;;;;;;7.55;100.00;100370.38;5018669;28;20760;-79
2022/12/25 06:32:41;;;;;;;12.40;4.30;;;;;;;7.59;100.00;100364.31;5018109;28;20686;-79
2022/12/25 06:35:08;;;;;;;6.47;4.00;;;;;;;7.60;100.00;100359.97;5018188;28;20276;-78
2022/12/25 06:37:34;;;;;;;12.03;4.80;;;;;;;7.65;100.00;100358.19;5018630;28;20560;-79
2022/12/25 06:40:02;;;;;;;9.07;4.07;;;;;;;7.68;100.00;100368.56;5017068;28;20582;-79
2022/12/25 06:42:28;;;;;;;7.30;4.57;;;;;;;7.70;100.00;100361.63;5018269;28;20230;-79
2022/12/25 06:44:55;;;;;;;10.40;4.00;;;;;;;7.66;100.00;100358.19;5018106;28;20210;-79
2022/12/25 06:47:21;;;;;;;11.80;4.50;;;;;;;7.69;100.00;100359.88;5017486;28;20233;-79
2022/12/25 06:49:47;;;;;;;5.83;3.97;;;;;;;7.60;100.00;100365.19;5017857;28;20234;-77
2022/12/25 06:52:14;;;;;;;10.03;4.30;;;;;;;7.60;100.00;100365.19;5016913;28;20226;-79
2022/12/25 06:54:40;;;;;;;11.23;4.33;;;;;;;7.67;100.00;100357.31;5018363;28;20256;-79
2022/12/25 06:57:08;;;;;;;11.37;4.17;;;;;;;7.68;100.00;100351.25;5018206;28;20209;-79
2022/12/25 06:59:34;;;;;;;8.87;4.03;;;;;;;7.66;100.00;100354.72;5018582;28;20712;-78
2022/12/25 07:02:01;;;;;;;4.83;4.37;;;;;;;7.60;100.00;100359.97;5017466;28;20250;-79
2022/12/25 07:04:31;;;;;;;13.47;5.30;;;;;;;7.48;100.00;100371.31;5018163;28;20744;-79
2022/12/25 07:06:57;;;;;;;10.03;4.23;;;;;;;7.50;100.00;100369.56;5017906;28;20224;-79
2022/12/25 07:09:23;;;;;;;5.90;3.33;;;;;;;7.51;100.00;100368.69;5018341;28;20238;-78
2022/12/25 07:11:50;;;;;;;7.37;4.23;;;;;;;7.51;100.00;100381.69;5017300;28;20285;-79
2022/12/25 07:14:21;;;;;;;7.13;3.77;;;;;;;7.50;100.00;100382.56;5017654;28;20257;-78
2022/12/25 07:16:48;;;;;;;11.40;4.03;;;;;;;7.54;100.00;100384.25;5017375;28;20250;-79
2022/12/25 07:19:14;;;;;;;7.53;3.63;;;;;;;7.56;100.00;100395.50;5017015;28;20241;-79
2022/12/25 07:21:41;;;;;;;5.60;4.23;;;;;;;7.49;100.00;100405.09;5016914;28;20670;-79
2022/12/25 07:24:07;;;;;;;8.83;3.07;;;;;;;7.42;100.00;100411.19;5017079;28;20589;-79
2022/12/25 07:26:34;;;;;;;7.53;4.80;;;;;;;7.35;100.00;100418.16;5017300;28;20202;-79
2022/12/25 07:29:00;;;;;;;8.67;3.90;;;;;;;7.24;100.00;100419.94;5016983;28;20211;-79
2022/12/25 07:31:27;;;;;;;9.43;4.30;;;;;;;7.26;100.00;100413.00;5017437;28;20229;-79
2022/12/25 07:33:54;;;;;;;9.13;3.90;;;;;;;7.20;100.00;100410.47;5016433;28;20688;-79
2022/12/25 07:36:21;;;;;;;7.40;3.77;;;;;;;7.23;100.00;100407.81;5017223;28;20265;-78
2022/12/25 07:38:49;;;;;;;9.57;4.07;;;;;;;7.29;100.00;100399.13;5017425;28;20229;-79
2022/12/25 07:41:15;;;;;;;9.57;3.70;;;;;;;7.19;100.00;100387.09;5016520;28;20208;-79
2022/12/25 07:43:41;;;;;;;5.57;3.90;;;;;;;7.15;100.00;100373.25;5016521;28;20272;-79
2022/12/25 07:46:08;;;;;;;9.40;3.63;;;;;;;7.22;100.00;100377.56;5016670;28;20264;-79
2022/12/25 07:48:36;;;;;;;5.30;3.83;;;;;;;7.23;100.00;100374.06;5017093;28;20206;-80
2022/12/25 07:51:05;;;;;;;6.43;3.50;;;;;;;7.21;100.00;100372.38;5015800;28;20252;-78
2022/12/25 07:53:32;;;;;;;8.90;3.90;;;;;;;7.27;100.00;100367.13;5009066;28;20565;-79
2022/12/25 07:55:59;;;;;;;6.53;4.00;;;;;;;7.19;100.00;100356.78;4997174;28;20280;-79
2022/12/25 07:58:26;;;;;;;9.57;4.23;;;;;;;7.30;100.00;100352.41;4997135;28;20301;-79
2022/12/25 08:00:52;;;;;;;6.87;3.53;;;;;;;7.36;100.00;100343.72;4996752;28;20685;-79
2022/12/25 08:03:18;;;;;;;8.80;3.90;;;;;;;7.32;100.00;100347.22;4996544;28;20619;-79
2022/12/25 08:05:46;;;;;;;13.00;4.53;;;;;;;7.42;100.00;100338.47;4997603;28;20685;-79
2022/12/25 08:08:13;;;;;;;11.30;4.13;;;;;;;7.40;100.00;100335.03;4997300;28;20223;-78
2022/12/25 08:10:44;;;;;;;7.43;3.77;;;;;;;7.47;100.00;100331.53;4997130;28;20573;-79
2022/12/25 08:13:11;;;;;;;6.13;2.80;;;;;;;7.45;100.00;100324.59;4997534;28;20234;-79
2022/12/25 08:15:37;;;;;;;7.10;3.30;;;;;;;7.34;100.00;100340.25;5015762;28;20260;-79
2022/12/25 08:18:03;;;;;;;6.63;3.87;;;;;;;7.35;100.00;100339.38;5014879;28;20596;-79
2022/12/25 08:20:30;;;;;;;5.37;3.03;;;;;;;7.37;100.00;100355.81;5015388;28;20207;-79
2022/12/25 08:22:57;;;;;;;15.77;7.17;;;;;;;7.29;100.00;100355.00;5015824;28;20484;-79
2022/12/25 08:25:23;;;;;;;6.87;3.90;;;;;;;7.24;100.00;100354.19;5014695;28;20206;-79
2022/12/25 08:27:50;;;;;;;5.10;3.53;;;;;;;7.21;100.00;100346.41;5015688;28;20228;-79
2022/12/25 08:30:16;;;;;;;7.33;4.03;;;;;;;7.28;100.00;100353.28;5015744;28;20206;-79
2022/12/25 08:32:43;;;;;;;7.27;3.37;;;;;;;7.34;100.00;100359.28;5015706;28;20252;-79
2022/12/25 08:35:09;;;;;;;8.10;3.27;;;;;;;7.38;100.00;100344.56;5014758;28;20620;-79
2022/12/25 08:37:35;;;;;;;7.80;4.53;;;;;;;7.45;100.00;100338.47;5015189;28;20209;-78
2022/12/25 08:40:04;;;;;;;10.53;4.80;;;;;;;7.54;100.00;100329.72;5014346;28;20226;-79
2022/12/25 08:42:30;;;;;;;13.43;4.30;;;;;;;7.60;100.00;100329.66;5012803;28;20230;-79
2022/12/25 08:44:57;;;;;;;5.30;3.80;;;;;;;7.58;100.00;100325.38;5015519;28;20229;-79
2022/12/25 08:47:23;;;;;;;7.97;4.77;;;;;;;7.53;100.00;100327.97;5014460;28;20208;-79
2022/12/25 08:49:49;;;;;;;13.40;4.70;;;;;;;7.60;100.00;100316.69;5014862;28;20259;-78
2022/12/25 08:52:16;;;;;;;10.67;4.83;;;;;;;7.63;100.00;100305.38;5015031;28;20254;-79
2022/12/25 08:54:42;;;;;;;17.07;6.40;;;;;;;7.73;100.00;100294.91;5014915;28;20214;-79
2022/12/25 08:57:10;;;;;;;8.00;6.13;;;;;;;7.88;100.00;100298.22;5013287;28;20598;-80
2022/12/25 08:59:36;;;;;;;11.13;5.13;;;;;;;7.86;100.00;100300.84;5015584;28;20218;-80
2022/12/25 09:02:02;;;;;;;15.23;6.57;;;;;;;7.92;100.00;100311.16;5014873;28;20291;-80
2022/12/25 09:04:29;;;;;;;11.07;5.90;;;;;;;8.06;100.00;100308.44;5015286;28;20801;-80
2022/12/25 09:06:55;;;;;;;10.53;5.63;;;;;;;8.18;100.00;100311.78;5014300;28;20199;-80
2022/12/25 09:09:25;;;;;;;9.93;5.50;;;;;;;8.21;100.00;100310.00;5012891;28;20229;-80
2022/12/25 09:11:52;;;;;;;11.37;5.23;;;;;;;8.21;100.00;100310.00;5013503;28;20286;-80
2022/12/25 09:14:19;;;;;;;11.27;5.40;;;;;;;8.26;100.00;100299.53;5013489;28;20682;-80
2022/12/25 09:16:46;;;;;;;11.73;5.73;;;;;;;8.30;100.00;100299.47;5011200;28;20224;-80
2022/12/25 09:19:12;;;;;;;8.27;5.37;;;;;;;8.31;100.00;100297.75;5015027;28;20283;-79
2022/12/25 09:21:38;;;;;;;11.93;5.73;;;;;;;8.37;100.00;100302.88;5011243;28;20230;-80
2022/12/25 09:24:05;;;;;;;8.07;4.43;;;;;;;8.39;100.00;100303.72;5008001;28;20236;-79
2022/12/25 09:26:31;;;;;;;8.57;4.77;;;;;;;8.40;100.00;100317.59;5010761;28;20202;-80
2022/12/25 09:29:02;;;;;;;10.97;6.10;;;;;;;8.27;100.00;100332.50;5000432;28;20202;-80
2022/12/25 09:31:30;;;;;;;9.40;4.83;;;;;;;8.43;100.00;100328.84;5009176;28;20227;-79
2022/12/25 09:33:57;;;;;;;15.07;5.20;;;;;;;8.51;100.00;100328.75;5011327;28;20202;-80
2022/12/25 09:36:25;;;;;;;9.77;5.60;;;;;;;8.65;100.00;100345.06;5011161;28;20586;-81
2022/12/25 09:38:52;;;;;;;12.07;5.37;;;;;;;8.67;100.00;100353.69;5011303;28;20283;-80
2022/12/25 09:41:24;;;;;;;10.00;5.40;;;;;;;8.67;100.00;100360.66;5010295;28;20230;-80
2022/12/25 09:43:54;;;;;;;9.37;4.90;;;;;;;8.74;100.00;100368.38;5009267;28;20210;-80
2022/12/25 09:46:25;;;;;;;6.30;4.97;;;;;;;8.81;100.00;100374.34;5010660;28;20203;-80
2022/12/25 09:49:02;;;;;;;8.50;4.33;;;;;;;8.81;100.00;100378.69;5011579;28;20202;-80
2022/12/25 09:51:32;;;;;;;9.33;4.60;;;;;;;8.85;100.00;100381.22;5008379;28;20221;-80
2022/12/25 09:54:03;;;;;;;5.50;4.33;;;;;;;8.84;100.00;100376.94;5009411;28;20210;-80
2022/12/25 09:56:29;;;;;;;12.73;4.50;;;;;;;8.86;100.00;100367.34;5008022;28;20210;-79
2022/12/25 09:58:56;;;;;;;7.78;6.07;;;;;;;9.05;100.00;100365.34;5009805;28;20458;-79
2022/12/25 10:01:31;;;;;;;7.60;3.90;;;;;;;9.11;100.00;100369.63;5008681;28;20250;-79
2022/12/25 10:04:16;;;;;;;7.13;4.57;;;;;;;9.11;100.00;100367.00;5011853;28;20199;-80
2022/12/25 10:06:57;;;;;;;6.53;4.07;;;;;;;9.04;100.00;100376.66;5011812;28;20280;-79
2022/12/25 10:09:41;;;;;;;6.10;4.20;;;;;;;9.05;100.00;100372.31;5010621;28;20228;-80
2022/12/25 10:12:22;;;;;;;5.97;4.00;;;;;;;9.14;100.00;100352.22;5011643;28;20222;-80
2022/12/25 10:15:03;;;;;;;5.30;3.93;;;;;;;9.22;100.00;100343.44;5012637;28;20206;-79
2022/12/25 10:17:41;;;;;;;5.77;3.83;;;;;;;9.17;100.00;100353.03;5012420;28;20199;-80
2022/12/25 10:20:19;;;;;;;6.13;3.87;;;;;;;9.10;100.00;100334.91;5012281;28;20230;-81
2022/12/25 10:22:48;;;;;;;7.03;4.00;;;;;;;9.12;100.00;100303.66;5017694;28;20732;-81
2022/12/25 10:25:17;;;;;;;5.37;4.47;;;;;;;9.09;100.00;100286.31;5018509;28;20214;-80
2022/12/25 10:27:43;;;;;;;5.27;4.17;;;;;;;9.15;100.00;100267.13;5018549;28;20214;-80
2022/12/25 10:30:14;;;;;;;8.70;4.60;;;;;;;9.08;100.00;100268.97;5018516;28;20262;-80
2022/12/25 10:32:41;;;;;;;6.97;3.93;;;;;;;9.06;100.00;100267.28;5016965;28;20828;-79
2022/12/25 10:35:12;;;;;;;6.50;4.30;;;;;;;9.19;100.00;100271.41;5016602;28;20210;-79
2022/12/25 10:37:40;;;;;;;8.67;3.97;;;;;;;9.19;100.00;100268.78;5016576;28;20220;-79
2022/12/25 10:40:34;;;;;;;8.73;5.40;;;;;;;9.22;100.00;100280.94;5015667;28;20283;-80
2022/12/25 10:43:07;;;;;;;8.13;3.83;;;;;;;9.27;100.00;100289.50;5016311;28;20223;-78
2022/12/25 10:45:43;;;;;;;9.10;3.80;;;;;;;9.37;100.00;100298.03;5016370;28;20217;-80
2022/12/25 10:48:19;;;;;;;6.80;3.60;;;;;;;9.56;100.00;100282.97;5015956;28;20213;-80
2022/12/25 10:50:47;;;;;;;5.47;2.97;;;;;;;9.67;100.00;100262.78;5015756;28;20203;-80
2022/12/25 10:53:19;;;;;;;18.00;5.77;;;;;;;9.99;100.00;100224.81;5015969;28;20230;-79
2022/12/25 10:55:54;;;;;;;8.83;4.90;;;;;;;10.32;100.00;100203.25;5016163;28;20627;-80
2022/12/25 10:58:20;;;;;;;5.03;3.23;;;;;;;10.35;100.00;100218.03;5015810;28;20552;-79
2022/12/25 11:00:52;;;;;;;6.60;3.03;;;;;;;10.32;100.00;100218.91;5015563;28;20231;-79
2022/12/25 11:03:24;;;;;;;8.93;4.10;;;;;;;10.17;100.00;100263.56;5015684;28;20235;-80
2022/12/25 11:05:53;;;;;;;6.93;3.27;;;;;;;10.10;100.00;100303.69;5016007;28;20273;-80
2022/12/25 11:08:22;;;;;;;5.23;3.43;;;;;;;10.19;100.00;100319.19;5015811;28;20253;-80
2022/12/25 11:10:54;;;;;;;5.77;3.23;;;;;;;10.18;100.00;100343.53;5015214;28;20206;-79
2022/12/25 11:13:24;;;;;;;6.37;3.53;;;;;;;10.26;100.00;100356.44;5014833;28;20233;-80
2022/12/25 11:16:00;;;;;;;5.70;3.03;;;;;;;10.29;100.00;100354.63;5015901;28;20217;-80
2022/12/25 11:18:28;;;;;;;3.27;2.57;;;;;;;10.36;100.00;100378.88;5015929;28;20560;-80
2022/12/25 11:20:58;;;;;;;6.50;3.27;;;;;;;10.43;100.00;100375.28;5015137;28;20224;-79
2022/12/25 11:23:27;;;;;;;3.83;2.60;;;;;;;10.23;100.00;100398.25;5008498;28;20217;-78
2022/12/25 11:25:59;;;;;;;6.33;3.13;;;;;;;10.31;100.00;100378.97;5006088;28;20211;-78
2022/12/25 11:28:27;;;;;;;4.10;2.97;;;;;;;10.26;100.00;100392.94;5005918;28;20203;-78
2022/12/25 11:30:57;;;;;;;4.37;2.73;;;;;;;10.27;100.00;100403.38;5006354;28;20214;-78
2022/12/25 11:33:29;;;;;;;5.97;2.83;;;;;;;10.38;100.00;100394.50;5005797;28;20215;-78
2022/12/25 11:36:00;;;;;;;4.20;2.90;;;;;;;10.35;100.00;100390.22;5006384;28;20211;-78
2022/12/25 11:38:27;;;;;;;6.37;3.43;;;;;;;10.33;100.00;100373.72;5006468;28;20680;-77
2022/12/25 11:40:58;;;;;;;4.77;3.40;;;;;;;10.24;100.00;100400.81;5005871;28;20646;-78
2022/12/25 11:43:29;;;;;;;4.33;3.13;;;;;;;10.28;100.00;100407.69;5006600;28;20210;-79
2022/12/25 11:46:09;;;;;;;12.33;3.53;;;;;;;10.28;100.00;100418.13;5006303;28;20850;-80
2022/12/25 11:48:43;;;;;;;6.50;3.10;;;;;;;10.21;100.00;100402.59;5006837;28;20228;-77
2022/12/25 11:51:12;;;;;;;8.07;3.07;;;;;;;10.24;100.00;100385.16;5005841;28;20273;-77
2022/12/25 11:53:43;;;;;;;9.33;3.37;;;;;;;10.28;100.00;100378.97;5006252;28;20272;-77
2022/12/25 11:56:15;;;;;;;8.73;3.60;;;;;;;10.23;100.00;100385.19;5005571;28;20211;-77
2022/12/25 11:58:45;;;;;;;8.07;3.00;;;;;;;10.28;100.00;100367.69;5004503;28;20265;-77
2022/12/25 12:01:18;;;;;;;4.13;3.00;;;;;;;10.31;100.00;100347.66;5003806;28;21151;-77
2022/12/25 12:03:44;;;;;;;6.20;3.53;;;;;;;10.33;100.00;100311.13;5004569;28;20241;-77
2022/12/25 12:06:20;;;;;;;7.50;3.97;;;;;;;10.23;100.00;100320.00;5004446;28;20281;-77
2022/12/25 12:08:53;;;;;;;6.63;2.97;;;;;;;10.24;100.00;100309.50;5004544;28;20352;-77
2022/12/25 12:11:23;;;;;;;4.53;3.20;;;;;;;10.22;100.00;100298.22;5003306;28;20696;-77
2022/12/25 12:14:02;;;;;;;5.67;3.60;;;;;;;10.19;100.00;100276.56;5004939;28;20211;-77
2022/12/25 12:16:29;;;;;;;6.20;3.80;;;;;;;10.27;100.00;100266.84;5004330;28;20272;-77
2022/12/25 12:18:55;;;;;;;5.57;3.73;;;;;;;10.26;100.00;100271.19;5003660;28;20230;-77
2022/12/25 12:21:25;;;;;;;7.13;3.73;;;;;;;10.22;100.00;100266.94;5003092;28;20250;-77
2022/12/25 12:23:56;;;;;;;7.67;3.87;;;;;;;10.27;100.00;100243.38;5003250;28;20241;-77
2022/12/25 12:26:26;;;;;;;8.13;3.93;;;;;;;10.15;100.00;100231.44;5004625;28;20222;-77
2022/12/25 12:28:55;;;;;;;6.30;4.03;;;;;;;10.06;100.00;100237.69;5004411;28;20239;-76
2022/12/25 12:31:22;;;;;;;6.33;4.40;;;;;;;10.11;100.00;100212.38;5003058;28;20230;-77
2022/12/25 12:33:52;;;;;;;5.10;3.67;;;;;;;10.08;100.00;100204.63;5002902;28;20207;-78
2022/12/25 12:36:21;;;;;;;7.10;4.43;;;;;;;10.07;100.00;100205.53;5003744;28;20246;-78
2022/12/25 12:38:50;;;;;;;7.57;4.60;;;;;;;10.09;100.00;100195.06;5005937;28;20210;-77
2022/12/25 12:41:17;;;;;;;6.37;4.03;;;;;;;9.99;100.00;100194.41;5011911;28;20222;-78
2022/12/25 12:43:47;;;;;;;6.00;4.80;;;;;;;10.00;100.00;100182.22;5012614;28;20233;-78
2022/12/25 12:46:20;;;;;;;4.90;4.13;;;;;;;10.03;100.00;100185.63;5042542;23;20229;-83
2022/12/25 12:48:48;;;;;;;5.07;3.57;;;;;;;10.00;100.00;100175.22;5075309;28;20208;-82
2022/12/25 12:51:28;;;;;;;5.20;3.80;;;;;;;10.01;100.00;100150.88;5072856;28;20231;-84
2022/12/25 12:54:16;;;;;;;5.10;4.53;;;;;;;9.88;100.00;100154.63;5073191;28;20286;-82
2022/12/25 12:56:42;;;;;;;5.07;3.23;;;;;;;9.88;100.00;100157.25;5067150;28;20220;-83
2022/12/25 12:59:10;;;;;;;4.53;3.63;;;;;;;9.85;100.00;100150.34;5064344;28;20261;-82
2022/12/25 13:01:47;;;;;;;6.67;3.70;;;;;;;9.88;100.00;100149.44;5064083;28;20217;-83
2022/12/25 13:04:30;;;;;;;5.40;3.63;;;;;;;9.81;100.00;100146.09;5064191;28;20204;-84
2022/12/25 13:07:08;;;;;;;4.83;3.47;;;;;;;9.80;100.00;100139.16;5062372;28;20641;-83
2022/12/25 13:09:48;;;;;;;4.83;4.03;;;;;;;9.79;100.00;100140.06;4362418;28;10000734;-82
2022/12/25 13:12:16;;;;;;;10.83;3.13;;;;;;;9.77;100.00;100138.34;5061265;28;20253;-81
2022/12/25 13:14:45;;;;;;;4.77;3.50;;;;;;;9.67;100.00;100133.34;5060334;28;20194;-82
2022/12/25 13:17:16;;;;;;;4.60;3.70;;;;;;;9.66;100.00;100129.00;5058894;28;20229;-84
2022/12/25 13:19:44;;;;;;;6.83;3.63;;;;;;;9.66;100.00;100129.00;5060200;28;20221;-84